sensor_id;sensor_type;location;lat;lon;timestamp;temperature;humidity
44271;DHT22;29963;44.594;11.368;2022-12-26T00:01:19;10.80;99.90
44271;DHT22;29963;44.594;11.368;2022-12-26T00:03:45;10.90;99.90
44271;DHT22;29963;44.594;11.368;2022-12-26T00:06:15;10.80;99.90
44271;DHT22;29963;44.594;11.368;2022-12-26T00:08:42;10.80;99.90
44271;DHT22;29963;44.594;11.368;2022-12-26T00:11:09;10.90;99.90
44271;DHT22;29963;44.594;11.368;2022-12-26T00:13:35;10.90;99.90
44271;DHT22;29963;44.594;11.368;2022-12-26T00:16:06;10.90;99.90
44271;DHT22;29963;44.594;11.368;2022-12-26T00:18:32;10.90;99.90
44271;DHT22;29963;44.594;11.368;2022-12-26T00:20:57;10.90;99.90
44271;DHT22;29963;44.594;11.368;2022-12-26T00:23:23;10.90;99.90
44271;DHT22;29963;44.594;11.368;2022-12-26T00:25:49;10.90;99.90
44271;DHT22;29963;44.594;11.368;2022-12-26T00:28:14;10.90;99.90
44271;DHT22;29963;44.594;11.368;2022-12-26T00:30:40;10.90;99.90
44271;DHT22;29963;44.594;11.368;2022-12-26T00:33:05;10.90;99.90
44271;DHT22;29963;44.594;11.368;2022-12-26T00:35:31;10.90;99.90
44271;DHT22;29963;44.594;11.368;2022-12-26T00:37:57;10.80;99.90
44271;DHT22;29963;44.594;11.368;2022-12-26T00:40:22;10.90;99.90
44271;DHT22;29963;44.594;11.368;2022-12-26T00:42:48;10.80;99.90
44271;DHT22;29963;44.594;11.368;2022-12-26T00:45:14;10.80;99.90
44271;DHT22;29963;44.594;11.368;2022-12-26T00:47:39;10.80;99.90
44271;DHT22;29963;44.594;11.368;2022-12-26T00:50:05;10.80;99.90
44271;DHT22;29963;44.594;11.368;2022-12-26T00:52:31;10.80;99.90
44271;DHT22;29963;44.594;11.368;2022-12-26T00:54:57;10.80;99.90
44271;DHT22;29963;44.594;11.368;2022-12-26T00:57:22;10.70;99.90
44271;DHT22;29963;44.594;11.368;2022-12-26T00:59:48;10.70;99.90
44271;DHT22;29963;44.594;11.368;2022-12-26T01:02:14;10.80;99.90
44271;DHT22;29963;44.594;11.368;2022-12-26T01:04:58;10.80;99.90
44271;DHT22;29963;44.594;11.368;2022-12-26T01:07:24;10.80;99.90
44271;DHT22;29963;44.594;11.368;2022-12-26T01:09:49;10.80;99.90
44271;DHT22;29963;44.594;11.368;2022-12-26T01:12:15;10.80;99.90
44271;DHT22;29963;44.594;11.368;2022-12-26T01:14:40;10.70;99.90
44271;DHT22;29963;44.594;11.368;2022-12-26T01:17:06;10.80;99.90
44271;DHT22;29963;44.594;11.368;2022-12-26T01:19:32;10.80;99.90
44271;DHT22;29963;44.594;11.368;2022-12-26T01:21:57;10.80;99.90
44271;DHT22;29963;44.594;11.368;2022-12-26T01:24:23;10.80;99.90
44271;DHT22;29963;44.594;11.368;2022-12-26T01:26:52;10.90;99.90
44271;DHT22;29963;44.594;11.368;2022-12-26T01:29:17;10.90;99.90
44271;DHT22;29963;44.594;11.368;2022-12-26T01:31:43;10.90;99.90
44271;DHT22;29963;44.594;11.368;2022-12-26T01:34:09;10.90;99.90
44271;DHT22;29963;44.594;11.368;2022-12-26T01:36:35;11.00;99.90
44271;DHT22;29963;44.594;11.368;2022-12-26T01:39:00;11.00;99.90
44271;DHT22;29963;44.594;11.368;2022-12-26T01:41:26;11.00;99.90
44271;DHT22;29963;44.594;11.368;2022-12-26T01:43:58;11.00;99.90
44271;DHT22;29963;44.594;11.368;2022-12-26T01:46:38;11.10;99.90
44271;DHT22;29963;44.594;11.368;2022-12-26T01:49:36;11.10;99.90
44271;DHT22;29963;44.594;11.368;2022-12-26T01:52:08;11.10;99.90
44271;DHT22;29963;44.594;11.368;2022-12-26T01:54:37;11.10;99.90
44271;DHT22;29963;44.594;11.368;2022-12-26T01:57:12;11.10;99.90
44271;DHT22;29963;44.594;11.368;2022-12-26T01:59:41;11.10;99.90
44271;DHT22;29963;44.594;11.368;2022-12-26T02:02:07;11.10;99.90
44271;DHT22;29963;44.594;11.368;2022-12-26T02:04:40;11.10;99.90
44271;DHT22;29963;44.594;11.368;2022-12-26T02:07:26;11.10;99.90
44271;DHT22;29963;44.594;11.368;2022-12-26T02:09:52;11.10;99.90
44271;DHT22;29963;44.594;11.368;2022-12-26T02:12:28;11.10;99.90
44271;DHT22;29963;44.594;11.368;2022-12-26T02:14:56;11.10;99.90
44271;DHT22;29963;44.594;11.368;2022-12-26T02:17:23;11.00;99.90
44271;DHT22;29963;44.594;11.368;2022-12-26T02:25:39;11.00;99.90
44271;DHT22;29963;44.594;11.368;2022-12-26T02:30:53;11.00;99.90
44271;DHT22;29963;44.594;11.368;2022-12-26T02:38:51;11.00;99.90
44271;DHT22;29963;44.594;11.368;2022-12-26T02:42:13;11.10;99.90
44271;DHT22;29963;44.594;11.368;2022-12-26T02:44:40;11.10;99.90
44271;DHT22;29963;44.594;11.368;2022-12-26T02:47:35;11.10;99.90
44271;DHT22;29963;44.594;11.368;2022-12-26T02:50:14;11.10;99.90
44271;DHT22;29963;44.594;11.368;2022-12-26T02:56:30;11.00;99.90
44271;DHT22;29963;44.594;11.368;2022-12-26T03:03:04;11.00;99.90
44271;DHT22;29963;44.594;11.368;2022-12-26T03:06:00;11.00;99.90
44271;DHT22;29963;44.594;11.368;2022-12-26T03:08:56;11.00;99.90
44271;DHT22;29963;44.594;11.368;2022-12-26T03:11:57;10.90;99.90
44271;DHT22;29963;44.594;11.368;2022-12-26T03:15:00;10.90;99.90
44271;DHT22;29963;44.594;11.368;2022-12-26T03:17:33;10.90;99.90
44271;DHT22;29963;44.594;11.368;2022-12-26T03:20:05;10.80;99.90
44271;DHT22;29963;44.594;11.368;2022-12-26T03:22:50;10.70;99.90
44271;DHT22;29963;44.594;11.368;2022-12-26T03:25:31;10.70;99.90
44271;DHT22;29963;44.594;11.368;2022-12-26T03:28:24;10.80;99.90
44271;DHT22;29963;44.594;11.368;2022-12-26T03:30:50;11.00;99.90
44271;DHT22;29963;44.594;11.368;2022-12-26T03:33:30;11.00;99.90
44271;DHT22;29963;44.594;11.368;2022-12-26T03:45:47;11.10;99.90
44271;DHT22;29963;44.594;11.368;2022-12-26T03:48:51;11.20;99.90
44271;DHT22;29963;44.594;11.368;2022-12-26T03:57:43;11.10;99.90
44271;DHT22;29963;44.594;11.368;2022-12-26T04:00:30;11.10;99.90
44271;DHT22;29963;44.594;11.368;2022-12-26T04:03:16;11.10;99.90
44271;DHT22;29963;44.594;11.368;2022-12-26T04:06:03;11.10;99.90
44271;DHT22;29963;44.594;11.368;2022-12-26T04:09:08;11.10;99.90
44271;DHT22;29963;44.594;11.368;2022-12-26T04:11:56;11.10;99.90
44271;DHT22;29963;44.594;11.368;2022-12-26T04:17:59;11.10;99.90
44271;DHT22;29963;44.594;11.368;2022-12-26T04:23:33;11.10;99.90
44271;DHT22;29963;44.594;11.368;2022-12-26T04:26:31;11.10;99.90
44271;DHT22;29963;44.594;11.368;2022-12-26T04:29:18;11.10;99.90
44271;DHT22;29963;44.594;11.368;2022-12-26T04:35:26;11.10;99.90
44271;DHT22;29963;44.594;11.368;2022-12-26T04:38:14;11.10;99.90
44271;DHT22;29963;44.594;11.368;2022-12-26T04:41:00;11.10;99.90
44271;DHT22;29963;44.594;11.368;2022-12-26T04:43:46;11.10;99.90
44271;DHT22;29963;44.594;11.368;2022-12-26T04:46:50;11.10;99.90
44271;DHT22;29963;44.594;11.368;2022-12-26T04:49:17;11.00;99.90
44271;DHT22;29963;44.594;11.368;2022-12-26T04:52:06;10.90;99.90
44271;DHT22;29963;44.594;11.368;2022-12-26T04:54:32;10.90;99.90
44271;DHT22;29963;44.594;11.368;2022-12-26T04:56:58;10.90;99.90
44271;DHT22;29963;44.594;11.368;2022-12-26T04:59:24;10.80;99.90
44271;DHT22;29963;44.594;11.368;2022-12-26T05:01:50;10.80;99.90
44271;DHT22;29963;44.594;11.368;2022-12-26T05:04:35;10.80;99.90
44271;DHT22;29963;44.594;11.368;2022-12-26T05:07:37;10.70;99.90
44271;DHT22;29963;44.594;11.368;2022-12-26T05:10:26;10.70;99.90
44271;DHT22;29963;44.594;11.368;2022-12-26T05:12:53;10.80;99.90
44271;DHT22;29963;44.594;11.368;2022-12-26T05:15:19;10.90;99.90
44271;DHT22;29963;44.594;11.368;2022-12-26T05:17:45;11.00;99.90
44271;DHT22;29963;44.594;11.368;2022-12-26T05:20:29;11.00;99.90
44271;DHT22;29963;44.594;11.368;2022-12-26T05:23:20;11.00;99.90
44271;DHT22;29963;44.594;11.368;2022-12-26T05:26:07;11.00;99.90
44271;DHT22;29963;44.594;11.368;2022-12-26T05:28:58;11.00;99.90
44271;DHT22;29963;44.594;11.368;2022-12-26T05:31:24;10.90;99.90
44271;DHT22;29963;44.594;11.368;2022-12-26T05:33:50;10.90;99.90
44271;DHT22;29963;44.594;11.368;2022-12-26T05:39:05;11.00;99.90
44271;DHT22;29963;44.594;11.368;2022-12-26T05:41:31;11.00;99.90
44271;DHT22;29963;44.594;11.368;2022-12-26T05:43:56;11.00;99.90
44271;DHT22;29963;44.594;11.368;2022-12-26T05:46:22;11.00;99.90
44271;DHT22;29963;44.594;11.368;2022-12-26T05:48:47;10.90;99.90
44271;DHT22;29963;44.594;11.368;2022-12-26T05:51:13;10.90;99.90
44271;DHT22;29963;44.594;11.368;2022-12-26T05:53:39;10.80;99.90
44271;DHT22;29963;44.594;11.368;2022-12-26T05:56:06;10.80;99.90
44271;DHT22;29963;44.594;11.368;2022-12-26T05:58:33;10.80;99.90
44271;DHT22;29963;44.594;11.368;2022-12-26T06:01:18;10.80;99.90
44271;DHT22;29963;44.594;11.368;2022-12-26T06:03:49;10.80;99.90
44271;DHT22;29963;44.594;11.368;2022-12-26T06:06:16;10.80;99.90
44271;DHT22;29963;44.594;11.368;2022-12-26T06:08:42;10.80;99.90
44271;DHT22;29963;44.594;11.368;2022-12-26T06:11:10;10.80;99.90
44271;DHT22;29963;44.594;11.368;2022-12-26T06:13:37;10.80;99.90
44271;DHT22;29963;44.594;11.368;2022-12-26T06:16:08;10.80;99.90
44271;DHT22;29963;44.594;11.368;2022-12-26T06:18:35;10.80;99.90
44271;DHT22;29963;44.594;11.368;2022-12-26T06:21:15;10.80;99.90
44271;DHT22;29963;44.594;11.368;2022-12-26T06:23:41;10.80;99.90
44271;DHT22;29963;44.594;11.368;2022-12-26T06:26:07;10.80;99.90
44271;DHT22;29963;44.594;11.368;2022-12-26T06:28:35;10.80;99.90
44271;DHT22;29963;44.594;11.368;2022-12-26T06:31:11;10.80;99.90
44271;DHT22;29963;44.594;11.368;2022-12-26T06:33:39;10.70;99.90
44271;DHT22;29963;44.594;11.368;2022-12-26T06:36:10;10.70;99.90
44271;DHT22;29963;44.594;11.368;2022-12-26T06:38:36;10.70;99.90
44271;DHT22;29963;44.594;11.368;2022-12-26T06:41:06;10.70;99.90
44271;DHT22;29963;44.594;11.368;2022-12-26T06:43:32;10.70;99.90
44271;DHT22;29963;44.594;11.368;2022-12-26T06:45:59;10.70;99.90
44271;DHT22;29963;44.594;11.368;2022-12-26T06:48:26;10.70;99.90
44271;DHT22;29963;44.594;11.368;2022-12-26T06:50:52;10.80;99.90
44271;DHT22;29963;44.594;11.368;2022-12-26T06:53:22;10.70;99.90
44271;DHT22;29963;44.594;11.368;2022-12-26T06:55:51;10.70;99.90
44271;DHT22;29963;44.594;11.368;2022-12-26T06:58:17;10.70;99.90
44271;DHT22;29963;44.594;11.368;2022-12-26T07:00:43;10.60;99.90
44271;DHT22;29963;44.594;11.368;2022-12-26T07:03:09;10.60;99.90
44271;DHT22;29963;44.594;11.368;2022-12-26T07:05:37;10.60;99.90
44271;DHT22;29963;44.594;11.368;2022-12-26T07:08:03;10.50;99.90
44271;DHT22;29963;44.594;11.368;2022-12-26T07:10:34;10.50;99.90
44271;DHT22;29963;44.594;11.368;2022-12-26T07:12:59;10.50;99.90
44271;DHT22;29963;44.594;11.368;2022-12-26T07:15:25;10.60;99.90
44271;DHT22;29963;44.594;11.368;2022-12-26T07:17:51;10.60;99.90
44271;DHT22;29963;44.594;11.368;2022-12-26T07:20:17;10.60;99.90
44271;DHT22;29963;44.594;11.368;2022-12-26T07:22:42;10.60;99.90
44271;DHT22;29963;44.594;11.368;2022-12-26T07:25:08;10.60;99.90
44271;DHT22;29963;44.594;11.368;2022-12-26T07:27:34;10.60;99.90
44271;DHT22;29963;44.594;11.368;2022-12-26T07:30:02;10.60;99.90
44271;DHT22;29963;44.594;11.368;2022-12-26T07:32:28;10.60;99.90
44271;DHT22;29963;44.594;11.368;2022-12-26T07:34:54;10.60;99.90
44271;DHT22;29963;44.594;11.368;2022-12-26T07:37:19;10.60;99.90
44271;DHT22;29963;44.594;11.368;2022-12-26T07:39:48;10.50;99.90
44271;DHT22;29963;44.594;11.368;2022-12-26T07:42:13;10.50;99.90
44271;DHT22;29963;44.594;11.368;2022-12-26T07:44:39;10.50;99.90
44271;DHT22;29963;44.594;11.368;2022-12-26T07:47:06;10.60;99.90
44271;DHT22;29963;44.594;11.368;2022-12-26T07:49:32;10.60;99.90
44271;DHT22;29963;44.594;11.368;2022-12-26T07:51:57;10.60;99.90
44271;DHT22;29963;44.594;11.368;2022-12-26T07:54:23;10.60;99.90
44271;DHT22;29963;44.594;11.368;2022-12-26T07:56:49;10.60;99.90
44271;DHT22;29963;44.594;11.368;2022-12-26T07:59:16;10.70;99.90
44271;DHT22;29963;44.594;11.368;2022-12-26T08:01:42;10.70;99.90
44271;DHT22;29963;44.594;11.368;2022-12-26T08:04:10;10.70;99.90
44271;DHT22;29963;44.594;11.368;2022-12-26T08:06:36;10.70;99.90
44271;DHT22;29963;44.594;11.368;2022-12-26T08:09:02;10.70;99.90
44271;DHT22;29963;44.594;11.368;2022-12-26T08:11:31;10.80;99.90
44271;DHT22;29963;44.594;11.368;2022-12-26T08:13:57;10.80;99.90
44271;DHT22;29963;44.594;11.368;2022-12-26T08:16:23;10.80;99.90
44271;DHT22;29963;44.594;11.368;2022-12-26T08:18:49;10.80;99.90
44271;DHT22;29963;44.594;11.368;2022-12-26T08:21:15;10.80;99.90
44271;DHT22;29963;44.594;11.368;2022-12-26T08:23:41;10.90;99.90
44271;DHT22;29963;44.594;11.368;2022-12-26T08:26:09;10.90;99.90
44271;DHT22;29963;44.594;11.368;2022-12-26T08:28:35;10.90;99.90
44271;DHT22;29963;44.594;11.368;2022-12-26T08:31:06;11.00;99.90
44271;DHT22;29963;44.594;11.368;2022-12-26T08:33:32;11.00;99.90
44271;DHT22;29963;44.594;11.368;2022-12-26T08:36:07;11.00;99.90
44271;DHT22;29963;44.594;11.368;2022-12-26T08:38:33;11.00;99.90
44271;DHT22;29963;44.594;11.368;2022-12-26T08:40:59;11.00;99.90
44271;DHT22;29963;44.594;11.368;2022-12-26T08:43:25;11.00;99.90
44271;DHT22;29963;44.594;11.368;2022-12-26T08:46:05;11.00;99.90
44271;DHT22;29963;44.594;11.368;2022-12-26T08:48:32;11.10;99.90
44271;DHT22;29963;44.594;11.368;2022-12-26T08:51:03;11.10;99.90
44271;DHT22;29963;44.594;11.368;2022-12-26T08:53:30;11.00;99.90
44271;DHT22;29963;44.594;11.368;2022-12-26T08:55:57;11.00;99.90
44271;DHT22;29963;44.594;11.368;2022-12-26T08:58:23;11.00;99.90
44271;DHT22;29963;44.594;11.368;2022-12-26T09:00:50;11.00;99.90
44271;DHT22;29963;44.594;11.368;2022-12-26T09:03:15;11.00;99.90
44271;DHT22;29963;44.594;11.368;2022-12-26T09:05:42;11.00;99.90
44271;DHT22;29963;44.594;11.368;2022-12-26T09:08:08;11.00;99.90
44271;DHT22;29963;44.594;11.368;2022-12-26T09:10:34;11.00;99.90
44271;DHT22;29963;44.594;11.368;2022-12-26T09:12:59;11.10;99.90
44271;DHT22;29963;44.594;11.368;2022-12-26T09:15:25;11.10;99.90
44271;DHT22;29963;44.594;11.368;2022-12-26T09:17:52;11.00;99.90
44271;DHT22;29963;44.594;11.368;2022-12-26T09:20:18;11.00;99.90
44271;DHT22;29963;44.594;11.368;2022-12-26T09:22:44;11.00;99.90
44271;DHT22;29963;44.594;11.368;2022-12-26T09:25:20;11.00;99.90
44271;DHT22;29963;44.594;11.368;2022-12-26T09:27:49;11.00;99.90
44271;DHT22;29963;44.594;11.368;2022-12-26T09:30:18;11.00;99.90
44271;DHT22;29963;44.594;11.368;2022-12-26T09:32:44;11.00;99.90
44271;DHT22;29963;44.594;11.368;2022-12-26T09:35:12;11.10;99.90
44271;DHT22;29963;44.594;11.368;2022-12-26T09:37:38;11.10;99.90
44271;DHT22;29963;44.594;11.368;2022-12-26T09:40:04;11.10;99.90
44271;DHT22;29963;44.594;11.368;2022-12-26T09:45:10;11.20;99.90
44271;DHT22;29963;44.594;11.368;2022-12-26T09:48:03;11.30;99.90
44271;DHT22;29963;44.594;11.368;2022-12-26T09:50:34;11.40;99.90
44271;DHT22;29963;44.594;11.368;2022-12-26T09:53:12;11.50;99.90
44271;DHT22;29963;44.594;11.368;2022-12-26T09:56:35;11.70;99.90
44271;DHT22;29963;44.594;11.368;2022-12-26T09:58:49;11.80;99.90
44271;DHT22;29963;44.594;11.368;2022-12-26T10:01:20;11.70;99.90
44271;DHT22;29963;44.594;11.368;2022-12-26T10:03:51;11.80;99.90
44271;DHT22;29963;44.594;11.368;2022-12-26T10:06:25;11.90;99.90
44271;DHT22;29963;44.594;11.368;2022-12-26T10:14:11;12.10;99.90
44271;DHT22;29963;44.594;11.368;2022-12-26T10:17:00;12.20;99.90
44271;DHT22;29963;44.594;11.368;2022-12-26T10:24:49;12.40;99.90
44271;DHT22;29963;44.594;11.368;2022-12-26T10:27:17;12.50;99.90
44271;DHT22;29963;44.594;11.368;2022-12-26T10:30:02;12.50;99.90
44271;DHT22;29963;44.594;11.368;2022-12-26T10:32:33;12.60;99.90
44271;DHT22;29963;44.594;11.368;2022-12-26T10:37:48;12.60;99.90
44271;DHT22;29963;44.594;11.368;2022-12-26T10:40:17;12.70;99.90
44271;DHT22;29963;44.594;11.368;2022-12-26T10:42:47;12.80;99.90
44271;DHT22;29963;44.594;11.368;2022-12-26T10:45:33;12.80;99.90
44271;DHT22;29963;44.594;11.368;2022-12-26T10:48:01;12.80;99.90
44271;DHT22;29963;44.594;11.368;2022-12-26T10:50:28;12.70;99.90
44271;DHT22;29963;44.594;11.368;2022-12-26T10:52:58;12.70;99.90
44271;DHT22;29963;44.594;11.368;2022-12-26T10:55:29;12.80;99.90
44271;DHT22;29963;44.594;11.368;2022-12-26T10:58:02;12.80;99.90
44271;DHT22;29963;44.594;11.368;2022-12-26T11:00:29;12.80;99.90
44271;DHT22;29963;44.594;11.368;2022-12-26T11:03:15;12.80;99.90
44271;DHT22;29963;44.594;11.368;2022-12-26T11:05:51;12.90;99.90
44271;DHT22;29963;44.594;11.368;2022-12-26T11:11:24;13.00;99.90
44271;DHT22;29963;44.594;11.368;2022-12-26T11:13:59;13.00;99.90
44271;DHT22;29963;44.594;11.368;2022-12-26T11:16:32;13.00;99.90
44271;DHT22;29963;44.594;11.368;2022-12-26T11:18:59;13.00;99.90
44271;DHT22;29963;44.594;11.368;2022-12-26T11:21:27;12.90;99.90
44271;DHT22;29963;44.594;11.368;2022-12-26T11:24:15;12.90;99.90
44271;DHT22;29963;44.594;11.368;2022-12-26T11:26:42;12.90;99.90
44271;DHT22;29963;44.594;11.368;2022-12-26T11:29:11;12.90;99.90
44271;DHT22;29963;44.594;11.368;2022-12-26T11:31:43;13.00;99.90
44271;DHT22;29963;44.594;11.368;2022-12-26T11:34:17;13.00;99.90
44271;DHT22;29963;44.594;11.368;2022-12-26T11:36:47;13.10;99.90
44271;DHT22;29963;44.594;11.368;2022-12-26T11:39:35;13.10;99.90
44271;DHT22;29963;44.594;11.368;2022-12-26T11:42:11;13.10;99.90
44271;DHT22;29963;44.594;11.368;2022-12-26T11:44:43;13.10;99.90
44271;DHT22;29963;44.594;11.368;2022-12-26T11:47:15;13.10;99.90
44271;DHT22;29963;44.594;11.368;2022-12-26T11:54:55;13.10;99.90
44271;DHT22;29963;44.594;11.368;2022-12-26T11:57:26;13.10;99.90
44271;DHT22;29963;44.594;11.368;2022-12-26T11:59:52;13.20;99.90
44271;DHT22;29963;44.594;11.368;2022-12-26T12:02:28;13.20;99.90
44271;DHT22;29963;44.594;11.368;2022-12-26T12:04:59;13.30;99.90
44271;DHT22;29963;44.594;11.368;2022-12-26T12:07:45;13.40;99.90
44271;DHT22;29963;44.594;11.368;2022-12-26T12:18:59;13.60;99.90
44271;DHT22;29963;44.594;11.368;2022-12-26T12:32:58;13.80;99.90
44271;DHT22;29963;44.594;11.368;2022-12-26T12:35:52;13.80;99.90
44271;DHT22;29963;44.594;11.368;2022-12-26T12:43:57;13.90;99.90
44271;DHT22;29963;44.594;11.368;2022-12-26T12:49:02;14.00;99.90
44271;DHT22;29963;44.594;11.368;2022-12-26T12:51:51;14.00;99.90
44271;DHT22;29963;44.594;11.368;2022-12-26T12:54:31;14.00;99.90
44271;DHT22;29963;44.594;11.368;2022-12-26T13:00:21;14.10;99.90
44271;DHT22;29963;44.594;11.368;2022-12-26T13:05:47;14.30;99.90
44271;DHT22;29963;44.594;11.368;2022-12-26T13:08:58;14.30;99.90
44271;DHT22;29963;44.594;11.368;2022-12-26T13:14:26;14.30;99.90
44271;DHT22;29963;44.594;11.368;2022-12-26T13:16:59;14.50;99.90
44271;DHT22;29963;44.594;11.368;2022-12-26T13:19:43;14.60;99.90
44271;DHT22;29963;44.594;11.368;2022-12-26T13:22:23;14.70;99.90
44271;DHT22;29963;44.594;11.368;2022-12-26T13:24:55;14.80;99.90
44271;DHT22;29963;44.594;11.368;2022-12-26T13:27:31;14.80;99.90
44271;DHT22;29963;44.594;11.368;2022-12-26T13:30:00;14.90;99.90
44271;DHT22;29963;44.594;11.368;2022-12-26T13:32:29;15.00;99.90
44271;DHT22;29963;44.594;11.368;2022-12-26T13:34:59;15.10;99.90
44271;DHT22;29963;44.594;11.368;2022-12-26T13:40:16;15.30;99.90
44271;DHT22;29963;44.594;11.368;2022-12-26T13:42:59;15.50;99.90
44271;DHT22;29963;44.594;11.368;2022-12-26T13:45:53;15.60;99.90
44271;DHT22;29963;44.594;11.368;2022-12-26T13:51:02;15.80;99.90
44271;DHT22;29963;44.594;11.368;2022-12-26T13:53:33;15.90;99.90
44271;DHT22;29963;44.594;11.368;2022-12-26T14:06:42;16.20;99.90
44271;DHT22;29963;44.594;11.368;2022-12-26T14:12:25;16.30;99.90
44271;DHT22;29963;44.594;11.368;2022-12-26T14:26:27;15.80;99.90
44271;DHT22;29963;44.594;11.368;2022-12-26T14:36:50;15.60;99.90
44271;DHT22;29963;44.594;11.368;2022-12-26T14:44:55;15.30;99.90
44271;DHT22;29963;44.594;11.368;2022-12-26T14:55:57;14.60;99.90
44271;DHT22;29963;44.594;11.368;2022-12-26T15:15:25;13.80;99.90
44271;DHT22;29963;44.594;11.368;2022-12-26T15:18:27;13.70;99.90
44271;DHT22;29963;44.594;11.368;2022-12-26T15:35:20;13.30;99.90
44271;DHT22;29963;44.594;11.368;2022-12-26T15:40:35;13.20;99.90
44271;DHT22;29963;44.594;11.368;2022-12-26T15:46:20;13.10;99.90
44271;DHT22;29963;44.594;11.368;2022-12-26T15:48:55;13.00;99.90
44271;DHT22;29963;44.594;11.368;2022-12-26T15:54:28;12.90;99.90
44271;DHT22;29963;44.594;11.368;2022-12-26T16:02:59;12.60;99.90
44271;DHT22;29963;44.594;11.368;2022-12-26T16:05:50;12.60;99.90
44271;DHT22;29963;44.594;11.368;2022-12-26T16:13:59;12.40;99.90
44271;DHT22;29963;44.594;11.368;2022-12-26T16:18:51;12.30;99.90
44271;DHT22;29963;44.594;11.368;2022-12-26T16:21:19;12.30;99.90
44271;DHT22;29963;44.594;11.368;2022-12-26T16:24:07;12.30;99.90
44271;DHT22;29963;44.594;11.368;2022-12-26T16:26:41;12.20;99.90
44271;DHT22;29963;44.594;11.368;2022-12-26T16:29:15;12.20;99.90
44271;DHT22;29963;44.594;11.368;2022-12-26T16:31:42;12.20;99.90
44271;DHT22;29963;44.594;11.368;2022-12-26T16:34:27;12.10;99.90
44271;DHT22;29963;44.594;11.368;2022-12-26T16:36:53;12.10;99.90
44271;DHT22;29963;44.594;11.368;2022-12-26T16:39:22;12.10;99.90
44271;DHT22;29963;44.594;11.368;2022-12-26T16:44:29;12.10;99.90
44271;DHT22;29963;44.594;11.368;2022-12-26T16:47:04;11.90;99.90
44271;DHT22;29963;44.594;11.368;2022-12-26T16:49:32;11.90;99.90
44271;DHT22;29963;44.594;11.368;2022-12-26T16:51:58;11.80;99.90
44271;DHT22;29963;44.594;11.368;2022-12-26T16:54:39;11.70;99.90
44271;DHT22;29963;44.594;11.368;2022-12-26T16:57:18;11.70;99.90
44271;DHT22;29963;44.594;11.368;2022-12-26T17:00:17;11.70;99.90
44271;DHT22;29963;44.594;11.368;2022-12-26T17:02:46;11.70;99.90
44271;DHT22;29963;44.594;11.368;2022-12-26T17:05:31;11.60;99.90
44271;DHT22;29963;44.594;11.368;2022-12-26T17:07:59;11.60;99.90
44271;DHT22;29963;44.594;11.368;2022-12-26T17:10:30;11.60;99.90
44271;DHT22;29963;44.594;11.368;2022-12-26T17:13:01;11.70;99.90
44271;DHT22;29963;44.594;11.368;2022-12-26T17:15:30;11.70;99.90
44271;DHT22;29963;44.594;11.368;2022-12-26T17:17:58;11.60;99.90
44271;DHT22;29963;44.594;11.368;2022-12-26T17:22:54;11.50;99.90
44271;DHT22;29963;44.594;11.368;2022-12-26T17:25:29;11.40;99.90
44271;DHT22;29963;44.594;11.368;2022-12-26T17:30:43;11.30;99.90
44271;DHT22;29963;44.594;11.368;2022-12-26T17:33:13;11.30;99.90
44271;DHT22;29963;44.594;11.368;2022-12-26T17:35:40;11.30;99.90
44271;DHT22;29963;44.594;11.368;2022-12-26T17:38:15;11.30;99.90
44271;DHT22;29963;44.594;11.368;2022-12-26T17:40:44;11.30;99.90
44271;DHT22;29963;44.594;11.368;2022-12-26T17:45:36;11.30;99.90
44271;DHT22;29963;44.594;11.368;2022-12-26T17:48:02;11.20;99.90
44271;DHT22;29963;44.594;11.368;2022-12-26T17:50:34;11.20;99.90
44271;DHT22;29963;44.594;11.368;2022-12-26T17:53:24;11.10;99.90
44271;DHT22;29963;44.594;11.368;2022-12-26T17:55:52;11.10;99.90
44271;DHT22;29963;44.594;11.368;2022-12-26T17:58:18;11.10;99.90
44271;DHT22;29963;44.594;11.368;2022-12-26T18:00:44;11.00;99.90
44271;DHT22;29963;44.594;11.368;2022-12-26T18:03:11;11.00;99.90
44271;DHT22;29963;44.594;11.368;2022-12-26T18:05:36;11.10;99.90
44271;DHT22;29963;44.594;11.368;2022-12-26T18:08:03;11.00;99.90
44271;DHT22;29963;44.594;11.368;2022-12-26T18:10:32;11.00;99.90
44271;DHT22;29963;44.594;11.368;2022-12-26T18:12:59;10.90;99.90
44271;DHT22;29963;44.594;11.368;2022-12-26T18:15:27;10.90;99.90
44271;DHT22;29963;44.594;11.368;2022-12-26T18:17:53;10.90;99.90
44271;DHT22;29963;44.594;11.368;2022-12-26T18:20:25;10.90;99.90
44271;DHT22;29963;44.594;11.368;2022-12-26T18:22:52;10.80;99.90
44271;DHT22;29963;44.594;11.368;2022-12-26T18:25:21;10.80;99.90
44271;DHT22;29963;44.594;11.368;2022-12-26T18:27:47;10.70;99.90
44271;DHT22;29963;44.594;11.368;2022-12-26T18:30:18;10.70;99.90
44271;DHT22;29963;44.594;11.368;2022-12-26T18:32:45;10.70;99.90
44271;DHT22;29963;44.594;11.368;2022-12-26T18:35:12;10.70;99.90
44271;DHT22;29963;44.594;11.368;2022-12-26T18:37:39;10.80;99.90
44271;DHT22;29963;44.594;11.368;2022-12-26T18:40:09;10.80;99.90
44271;DHT22;29963;44.594;11.368;2022-12-26T18:42:38;10.70;99.90
44271;DHT22;29963;44.594;11.368;2022-12-26T18:45:04;10.70;99.90
44271;DHT22;29963;44.594;11.368;2022-12-26T18:47:30;10.60;99.90
44271;DHT22;29963;44.594;11.368;2022-12-26T18:49:55;10.60;99.90
44271;DHT22;29963;44.594;11.368;2022-12-26T18:52:21;10.60;99.90
44271;DHT22;29963;44.594;11.368;2022-12-26T18:54:46;10.60;99.90
44271;DHT22;29963;44.594;11.368;2022-12-26T18:57:17;10.60;99.90
44271;DHT22;29963;44.594;11.368;2022-12-26T18:59:43;10.60;99.90
44271;DHT22;29963;44.594;11.368;2022-12-26T19:02:15;10.60;99.90
44271;DHT22;29963;44.594;11.368;2022-12-26T19:04:41;10.50;99.90
44271;DHT22;29963;44.594;11.368;2022-12-26T19:07:07;10.50;99.90
44271;DHT22;29963;44.594;11.368;2022-12-26T19:09:33;10.50;99.90
44271;DHT22;29963;44.594;11.368;2022-12-26T19:11:59;10.50;99.90
44271;DHT22;29963;44.594;11.368;2022-12-26T19:14:24;10.60;99.90
44271;DHT22;29963;44.594;11.368;2022-12-26T19:16:50;10.50;99.90
44271;DHT22;29963;44.594;11.368;2022-12-26T19:19:16;10.50;99.90
44271;DHT22;29963;44.594;11.368;2022-12-26T19:21:41;10.40;99.90
44271;DHT22;29963;44.594;11.368;2022-12-26T19:24:09;10.40;99.90
44271;DHT22;29963;44.594;11.368;2022-12-26T19:26:36;10.40;99.90
44271;DHT22;29963;44.594;11.368;2022-12-26T19:29:01;10.50;99.90
44271;DHT22;29963;44.594;11.368;2022-12-26T19:31:27;10.50;99.90
44271;DHT22;29963;44.594;11.368;2022-12-26T19:33:56;10.50;99.90